createdAt,value
2018-07-07T00:03:38.996Z,15.87
2018-07-07T00:08:42.555Z,15.30
2018-07-07T00:13:46.075Z,15.40
2018-07-07T00:18:49.743Z,16.13
2018-07-07T00:23:54.939Z,16.07
2018-07-07T00:28:58.469Z,16.03
2018-07-07T00:34:02.030Z,15.73
2018-07-07T00:39:05.676Z,15.93
2018-07-07T00:44:09.259Z,17.00
2018-07-07T00:49:12.857Z,16.30
2018-07-07T00:54:16.423Z,17.80
2018-07-07T00:59:20.168Z,15.77
2018-07-07T01:04:23.818Z,16.37
2018-07-07T01:09:27.381Z,15.40
2018-07-07T01:14:31.138Z,16.90
2018-07-07T01:19:34.732Z,15.30
2018-07-07T01:24:38.603Z,16.90
2018-07-07T01:29:42.747Z,17.00
2018-07-07T01:34:46.308Z,16.80
2018-07-07T01:39:49.964Z,15.50
2018-07-07T01:44:53.785Z,16.37
2018-07-07T01:49:57.383Z,15.70
2018-07-07T01:55:00.968Z,17.57
2018-07-07T02:00:04.640Z,16.03
2018-07-07T02:05:08.264Z,15.17
2018-07-07T02:10:11.514Z,17.13
2018-07-07T02:15:15.092Z,17.00
2018-07-07T02:20:18.751Z,16.77
2018-07-07T02:25:22.306Z,17.10
2018-07-07T02:30:25.960Z,16.53
2018-07-07T02:35:29.526Z,18.03
2018-07-07T02:40:33.969Z,16.87
2018-07-07T02:45:37.618Z,16.57
2018-07-07T02:50:41.217Z,15.63
2018-07-07T02:55:44.896Z,16.50
2018-07-07T03:00:48.458Z,17.23
2018-07-07T03:05:51.999Z,18.13
2018-07-07T03:10:55.607Z,16.67
2018-07-07T03:15:59.228Z,17.53
2018-07-07T03:21:02.817Z,15.53
2018-07-07T03:26:06.036Z,16.67
2018-07-07T03:31:09.604Z,16.20
2018-07-07T03:36:13.187Z,18.90
2018-07-07T03:41:16.749Z,24.20
2018-07-07T03:46:20.360Z,25.77
2018-07-07T03:51:23.966Z,23.97
2018-07-07T03:56:27.561Z,28.10
2018-07-07T04:01:31.168Z,30.10
2018-07-07T04:06:34.932Z,29.60
2018-07-07T04:11:38.509Z,31.93
2018-07-07T04:16:42.089Z,36.33
2018-07-07T04:21:45.661Z,37.20
2018-07-07T04:26:49.223Z,37.90
2018-07-07T04:31:52.824Z,36.83
2018-07-07T04:36:56.664Z,35.50
2018-07-07T04:42:00.259Z,35.17
2018-07-07T04:47:03.870Z,33.40
2018-07-07T04:52:07.451Z,32.87
2018-07-07T04:57:11.064Z,31.77
2018-07-07T05:02:14.944Z,33.33
2018-07-07T05:07:19.154Z,32.67
2018-07-07T05:12:22.704Z,33.73
2018-07-07T05:17:28.216Z,28.70
2018-07-07T05:22:31.759Z,29.80
2018-07-07T05:27:35.690Z,29.20
2018-07-07T05:32:39.283Z,26.57
2018-07-07T05:37:43.052Z,27.57
2018-07-07T05:42:46.645Z,26.87
2018-07-07T05:47:50.392Z,26.53
2018-07-07T05:52:53.985Z,29.33
2018-07-07T05:57:57.586Z,26.20
2018-07-07T06:03:01.164Z,26.30
2018-07-07T06:08:05.251Z,23.53
2018-07-07T06:13:08.955Z,23.47
2018-07-07T06:18:12.650Z,21.43
2018-07-07T06:23:16.248Z,21.60
2018-07-07T06:28:20.488Z,19.83
2018-07-07T06:33:24.048Z,20.63
2018-07-07T06:38:28.900Z,19.70
2018-07-07T06:43:32.505Z,20.33
2018-07-07T06:48:36.157Z,20.57
2018-07-07T06:53:39.739Z,21.20
2018-07-07T06:58:43.289Z,20.93
2018-07-07T07:03:46.885Z,20.27
2018-07-07T07:08:50.935Z,21.00
2018-07-07T07:13:54.826Z,20.73
2018-07-07T07:18:58.744Z,20.30
2018-07-07T07:24:02.317Z,19.63
2018-07-07T07:29:05.874Z,20.70
2018-07-07T07:34:09.426Z,22.27
2018-07-07T07:39:13.816Z,19.20
2018-07-07T07:44:17.379Z,18.90
2018-07-07T07:49:21.265Z,18.50
2018-07-07T07:54:24.832Z,18.00
2018-07-07T07:59:28.412Z,16.90
2018-07-07T08:04:32.321Z,17.33
2018-07-07T08:09:35.883Z,16.27
2018-07-07T08:14:39.564Z,15.27
2018-07-07T08:19:43.185Z,16.53
2018-07-07T08:24:47.106Z,17.27
2018-07-07T08:29:50.853Z,17.07
2018-07-07T08:34:54.425Z,16.27
2018-07-07T08:39:58.031Z,15.40
2018-07-07T08:45:01.593Z,14.77
2018-07-07T08:50:05.574Z,15.07
2018-07-07T08:55:09.192Z,17.37
2018-07-07T09:00:13.103Z,15.10
2018-07-07T09:05:16.635Z,16.53
2018-07-07T09:10:40.186Z,12.50
2018-07-07T09:15:44.812Z,11.47
2018-07-07T09:20:49.380Z,12.00
2018-07-07T09:25:52.977Z,10.73
2018-07-07T09:30:56.595Z,8.53
2018-07-07T09:36:00.247Z,8.10
2018-07-07T09:41:03.838Z,9.27
2018-07-07T09:46:07.742Z,8.00
2018-07-07T09:51:11.856Z,8.40
2018-07-07T09:56:15.432Z,7.60
2018-07-07T10:01:19.105Z,7.07
2018-07-07T10:06:22.740Z,7.27
2018-07-07T10:11:26.388Z,8.27
2018-07-07T10:16:29.947Z,6.30
2018-07-07T10:21:33.544Z,4.97
2018-07-07T10:26:38.155Z,4.60
2018-07-07T10:31:41.574Z,4.70
2018-07-07T10:36:45.325Z,4.20
2018-07-07T10:41:48.839Z,4.90
2018-07-07T10:46:52.496Z,5.00
2018-07-07T10:51:56.561Z,4.57
2018-07-07T10:57:00.185Z,4.27
2018-07-07T11:02:03.808Z,4.73
2018-07-07T11:07:07.423Z,4.20
2018-07-07T11:12:12.895Z,4.27
2018-07-07T11:17:16.442Z,4.50
2018-07-07T11:22:19.971Z,4.50
2018-07-07T11:27:23.896Z,4.20
2018-07-07T11:32:27.459Z,3.90
2018-07-07T11:37:31.222Z,3.50
2018-07-07T11:42:34.997Z,3.27
2018-07-07T11:47:39.162Z,4.17
2018-07-07T11:52:43.076Z,4.07
2018-07-07T11:57:46.653Z,3.93
2018-07-07T12:02:50.363Z,3.70
2018-07-07T12:08:00.831Z,3.37
2018-07-07T12:12:57.923Z,3.37
2018-07-07T12:18:01.980Z,3.70
2018-07-07T12:23:06.351Z,3.47
2018-07-07T12:28:25.800Z,3.77
2018-07-07T12:33:30.020Z,3.10
2018-07-07T12:38:33.842Z,2.30
2018-07-07T12:43:37.466Z,2.03
2018-07-07T12:48:41.007Z,2.70
2018-07-07T12:53:44.565Z,2.40
2018-07-07T12:58:48.140Z,2.47
2018-07-07T13:03:51.696Z,2.60
2018-07-07T13:08:55.285Z,2.37
2018-07-07T13:13:58.848Z,3.23
2018-07-07T13:19:02.556Z,2.87
2018-07-07T13:24:06.446Z,2.20
2018-07-07T13:29:10.005Z,3.10
2018-07-07T13:34:13.555Z,3.20
2018-07-07T13:39:17.502Z,3.60
2018-07-07T13:44:21.040Z,3.40
2018-07-07T13:49:24.702Z,4.30
2018-07-07T13:54:28.277Z,3.20
2018-07-07T13:59:31.510Z,2.87
2018-07-07T14:04:35.065Z,2.83
2018-07-07T14:09:40.563Z,2.60
2018-07-07T14:14:44.175Z,4.03
2018-07-07T14:19:47.768Z,9.43
2018-07-07T14:24:51.339Z,3.47
2018-07-07T14:29:54.928Z,3.40
2018-07-07T14:34:58.871Z,4.43
2018-07-07T14:40:02.489Z,4.30
2018-07-07T14:45:12.187Z,5.13
2018-07-07T14:50:16.620Z,3.73
2018-07-07T14:55:24.619Z,4.90
2018-07-07T15:01:31.782Z,6.00
2018-07-07T15:06:35.656Z,6.80
2018-07-07T15:11:39.258Z,6.40
2018-07-07T15:16:46.445Z,4.50
2018-07-07T15:21:49.993Z,3.70
2018-07-07T15:26:53.535Z,4.00
2018-07-07T15:31:57.328Z,4.20
2018-07-07T15:37:01.013Z,4.00
2018-07-07T15:42:04.577Z,4.27
2018-07-07T15:47:08.634Z,4.70
2018-07-07T15:52:14.168Z,3.60
2018-07-07T15:57:17.860Z,3.97
2018-07-07T16:02:21.445Z,4.40
2018-07-07T16:07:25.030Z,4.10
2018-07-07T16:12:28.634Z,4.27
2018-07-07T16:17:32.159Z,4.00
2018-07-07T16:22:36.077Z,4.13
2018-07-07T16:27:41.168Z,5.00
2018-07-07T16:32:44.731Z,5.37
2018-07-07T16:37:48.335Z,4.77
2018-07-07T16:42:51.940Z,4.20
2018-07-07T16:47:55.762Z,4.50
2018-07-07T16:53:00.105Z,4.90
2018-07-07T16:58:04.285Z,4.70
2018-07-07T17:03:08.620Z,4.40
2018-07-07T17:08:12.562Z,3.57
2018-07-07T17:13:18.741Z,4.40
2018-07-07T17:18:23.013Z,4.47
2018-07-07T17:23:26.635Z,4.03
2018-07-07T17:28:30.332Z,4.20
2018-07-07T17:33:33.621Z,5.80
2018-07-07T17:38:37.599Z,9.37
2018-07-07T17:43:41.572Z,4.80
2018-07-07T17:48:45.470Z,4.93
2018-07-07T17:53:49.868Z,5.20
2018-07-07T17:58:53.767Z,4.97
2018-07-07T18:03:58.001Z,4.67
2018-07-07T18:09:01.579Z,5.77
2018-07-07T18:14:05.462Z,4.60
2018-07-07T18:19:09.095Z,5.40
2018-07-07T18:24:12.633Z,5.90
2018-07-07T18:29:16.195Z,5.53
2018-07-07T18:34:20.616Z,4.50
2018-07-07T18:39:24.305Z,5.60
2018-07-07T18:44:27.906Z,5.10
2018-07-07T18:49:31.776Z,11.60
2018-07-07T18:54:35.320Z,6.47
2018-07-07T18:59:39.080Z,5.93
2018-07-07T19:04:42.623Z,5.90
2018-07-07T19:09:46.931Z,6.57
2018-07-07T19:14:50.851Z,8.17
2018-07-07T19:19:54.423Z,6.87
2018-07-07T19:25:03.385Z,7.20
2018-07-07T19:30:07.031Z,7.40
2018-07-07T19:35:15.984Z,6.23
2018-07-07T19:40:20.211Z,13.53
2018-07-07T19:45:23.853Z,9.50
2018-07-07T19:50:27.620Z,7.70
2018-07-07T19:55:31.843Z,6.73
2018-07-07T20:00:35.405Z,6.80
2018-07-07T20:05:38.979Z,10.57
2018-07-07T20:10:42.561Z,10.10
2018-07-07T20:16:16.040Z,9.00
2018-07-07T20:21:36.221Z,10.50
2018-07-07T20:26:43.984Z,10.33
2018-07-07T20:31:48.485Z,9.00
2018-07-07T20:36:52.652Z,11.43
2018-07-07T20:41:56.224Z,16.33
2018-07-07T20:52:30.121Z,24.17
2018-07-07T20:57:33.713Z,16.50
2018-07-07T21:02:53.435Z,11.83
2018-07-07T21:07:57.055Z,8.43
2018-07-07T21:13:00.635Z,8.80
2018-07-07T21:18:04.964Z,7.97
2018-07-07T21:23:08.191Z,8.40
2018-07-07T21:28:11.767Z,8.53
2018-07-07T21:33:15.308Z,13.87
2018-07-07T21:38:18.870Z,12.87
2018-07-07T21:43:22.409Z,10.60
2018-07-07T21:48:26.082Z,11.47
2018-07-07T21:53:29.680Z,10.60
2018-07-07T21:58:33.555Z,10.67
2018-07-07T22:03:42.424Z,10.10
2018-07-07T22:08:46.033Z,9.10
2018-07-07T22:13:49.880Z,10.83
2018-07-07T22:18:53.473Z,11.13
2018-07-07T22:23:57.101Z,17.30
2018-07-07T22:29:00.640Z,10.57
2018-07-07T22:34:04.368Z,11.07
2018-07-07T22:39:08.096Z,9.67
2018-07-07T22:44:11.773Z,9.90
2018-07-07T22:49:15.808Z,9.60
2018-07-07T22:54:22.628Z,9.93
2018-07-07T22:59:26.396Z,11.80
2018-07-07T23:04:30.474Z,10.00
2018-07-07T23:09:36.159Z,10.53
2018-07-07T23:14:39.884Z,10.60
2018-07-07T23:19:43.520Z,10.20
2018-07-07T23:24:47.422Z,9.73
2018-07-07T23:29:51.131Z,9.87
2018-07-07T23:34:54.867Z,10.23
2018-07-07T23:39:58.459Z,10.20
2018-07-07T23:45:02.208Z,9.67
2018-07-07T23:50:06.688Z,10.33
2018-07-07T23:55:10.636Z,10.63
